CST,Max TemperatureF,Mean TemperatureF,Min TemperatureF,Max Dew PointF,MeanDew PointF,Min DewpointF,Max Humidity, Mean Humidity, Min Humidity, Max Sea Level PressureIn, Mean Sea Level PressureIn, Min Sea Level PressureIn, Max VisibilityMiles, Mean VisibilityMiles, Min VisibilityMiles, Max Wind SpeedMPH, Mean Wind SpeedMPH, Max Gust SpeedMPH,PrecipitationIn, CloudCover, Events, WindDirDegrees
2012-11-1,48,37,26,30,26,19,93,65,43,30.01,29.92,29.89,10,10,10,15,3,22,0.00,5,,327
2012-11-2,44,30,17,27,22,14,100,75,37,30.16,30.10,30.02,10,10,10,7,1,,0.00,0,,38
2012-11-3,44,38,32,30,28,27,87,71,53,30.26,30.21,30.16,10,10,10,7,2,,0.00,2,,91
2012-11-4,46,39,32,32,30,28,93,73,53,30.25,30.21,30.17,10,10,10,8,1,,0.00,6,,92
2012-11-5,44,34,24,28,26,23,93,74,49,30.24,30.17,30.07,10,10,10,8,3,,0.00,2,,81
2012-11-6,35,34,32,36,33,28,100,93,75,30.05,29.89,29.81,10,5,0,13,5,17,0.02,8,Fog-Rain-Snow,180
2012-11-7,42,38,33,37,34,32,100,87,66,30.13,30.08,29.92,10,8,0,6,1,,0.00,8,Fog,47
2012-11-8,51,40,30,34,32,28,100,78,47,30.13,30.06,29.98,10,10,10,15,5,20,0.00,1,,176
2012-11-9,50,39,28,41,35,27,100,85,62,30.07,30.02,29.98,10,8,3,14,3,20,0.00,5,Rain,84
2012-11-10,68,56,44,52,47,41,93,74,52,30.01,29.77,29.65,10,7,3,21,10,28,0.00,4,Rain,136
2012-11-11,64,46,28,55,40,21,100,81,45,29.94,29.75,29.65,10,9,2,17,12,29,0.72,7,Rain-Thunderstorm,233
2012-11-12,28,26,23,21,17,14,86,69,64,30.30,30.08,29.95,10,10,0,15,10,23,0.00,6,Snow,261
2012-11-13,37,24,12,27,18,9,93,74,45,30.44,30.38,30.30,10,10,10,8,1,,0.00,0,,207
2012-11-14,51,43,35,30,27,23,70,57,41,30.39,30.31,30.26,10,10,10,14,6,17,0.00,0,,191
2012-11-15,51,37,23,32,29,23,100,69,41,30.40,30.27,30.22,10,10,10,9,4,,0.00,0,,214
2012-11-16,46,32,17,32,26,16,100,85,57,30.49,30.44,30.40,10,10,5,8,1,,0.00,0,,97
2012-11-17,53,36,19,36,28,19,100,71,44,30.44,30.39,30.35,10,9,3,14,3,17,0.00,0,,168
2012-11-18,59,47,35,32,31,28,87,54,31,30.35,30.27,30.22,10,10,7,15,7,21,0.00,1,,168
2012-11-19,51,43,35,41,35,32,100,66,50,30.22,30.13,30.06,10,10,7,12,5,16,0.01,5,Rain,161
2012-11-20,51,40,28,41,36,28,100,91,67,30.16,30.13,30.07,10,5,0,7,1,,0.00,4,Fog,254
2012-11-21,60,43,26,45,36,27,100,74,42,30.15,30.02,29.88,10,7,0,13,3,21,0.00,2,Fog,198
2012-11-22,62,48,33,43,36,23,75,58,42,29.88,29.76,29.63,10,10,10,23,10,37,0.00,2,,225
2012-11-23,33,28,23,25,16,14,74,63,55,30.28,30.12,29.87,10,10,7,22,16,31,0.00,7,Snow,302
2012-11-24,32,26,21,19,15,14,74,63,48,30.28,30.12,29.86,10,10,3,12,6,16,0.00,4,,228
2012-11-25,35,26,17,21,20,16,93,70,56,30.11,29.93,29.81,10,10,10,14,5,20,0.00,4,,285
2012-11-26,30,18,5,23,10,1,92,64,40,30.39,30.29,30.11,10,10,10,14,4,20,0.00,3,,314
2012-11-27,32,16,1,14,9,0,92,67,44,30.38,30.26,30.16,10,10,10,10,2,17,0.00,1,,212
2012-11-28,33,20,8,23,17,5,93,80,60,30.36,30.26,30.15,10,10,10,8,1,,0.00,1,,264
2012-11-29,46,32,19,30,26,18,100,77,50,30.16,30.10,30.04,10,10,7,14,2,21,0.00,2,,90
2012-11-30,35,34,32,34,32,30,100,93,87,30.18,30.15,30.09,10,6,2,14,9,18,0.00,8,,83